New Southgate, United Kingdom
Current Conditions -  °F | °C
As of 6:50 PM on Friday 26 Dec 2014 (Local Time) from EGLC Reporting Station
Light Rain Light Rain  
Wind Chill: 33°   Ceiling: 1600
Heat Index: 41°   Visibility: 6mi
Dew Point: 37°   Wind: 14mph
Humidity: 87%   Direction: 140°SE
Pressure: 29.91"   Gusts: NA
Location:  51.61°N, 0.13°W
Report Text: EGLC 261850Z 14012KT 9999 -RA FEW010 BKN016 05/03 Q1013
Loading
Personal Weather Stations






























Interactive Weather Map New forecast layout! Learn more

10-Day Weather Forecast

Advertisements
Track Severe Weather on mobile